Airport Weather Around the Area


KLVN - Mpls/Airlake, Lakeville, MN, USA
Distance from station: S 5mi, 8km
Updated: Fri, 28-Jul-2017 9:34am CDT
Clear
Clear
 Wind from calm
Wind: Calm
Temperature: 72°F , 22°C
Dew Point: 64°F , 18°C
Humidity: 78%
Barometer: 30.10 inHg , 1019.3 hPa
Clouds: Clear
Visibility: 10 miles , 16 km
2017/07/28 14:34 KLVN 281434Z AUTO 00000KT 10SM CLR 22/18 A3010 RMK AO2
KMSP - MSP International, Minneapolis, MN, USA
Distance from station: N 13mi, 20km
Updated: Fri, 28-Jul-2017 8:53am CDT
Partly Cloudy
Partly Cloudy
 Wind from ENE
Wind: ENE 5 mph , 7 km/h
Temperature: 73°F , 23°C
Dew Point: 61°F , 16°C
Humidity: 65%
Barometer: 30.10 inHg , 1019.3 hPa
Clouds: Partly Cloudy
Visibility: 10 miles , 16 km
Cloud details: Partly Cloudy 30000 ft
2017/07/28 13:53 KMSP 281353Z 07004KT 10SM SCT300 23/16 A3010 RMK AO2 SLP188 T02280161
 
KSGS - South St Paul/Fleming Field, So. St. Paul, MN, USA
Distance from station: NE 14mi, 22km
Updated: Fri, 28-Jul-2017 9:34am CDT
Clear
Clear
 Wind from calm
Wind: Calm
Temperature: 73°F , 23°C
Dew Point: 61°F , 16°C
Humidity: 65%
Barometer: 30.10 inHg , 1019.3 hPa
Clouds: Clear
Visibility: 10 miles , 16 km
2017/07/28 14:34 KSGS 281434Z AUTO 00000KT 10SM CLR 23/16 A3010 RMK AO2 T02300163
KFCM - Mpls/Flying Cloud, Eden Prairie, MN, USA
Distance from station: NW 15mi, 24km
Updated: Fri, 28-Jul-2017 8:53am CDT
Clear
Clear
 Wind from ENE
Wind: ENE 6 mph , 9 km/h
Temperature: 73°F , 23°C
Dew Point: 63°F , 17°C
Humidity: 69%
Barometer: 30.09 inHg , 1019 hPa
Clouds: Clear
Visibility: 10 miles , 16 km
2017/07/28 13:53 KFCM 281353Z 06005KT 10SM CLR 23/17 A3009 RMK AO2 SLP185 T02330167
 
KSTP - St. Paul Downtown, St. Paul, MN, USA
Distance from station: NNE 18mi, 29km
Updated: Fri, 28-Jul-2017 8:53am CDT
Clear
Clear
 Wind from E
Wind: E 5 mph , 7 km/h
Temperature: 72°F , 22°C
Dew Point: 63°F , 17°C
Humidity: 73%
Barometer: 30.10 inHg , 1019.3 hPa
Clouds: Clear
Visibility: 10 miles , 16 km
2017/07/28 13:53 KSTP 281353Z 10004KT 10SM CLR 22/17 A3010 RMK AO2 SLP187 T02170172
KSYN - Stanton, Minnesota, USA
Distance from station: SE 18mi, 29km
Updated: Fri, 28-Jul-2017 9:33am CDT
Clear
Clear
 Wind from NE
Wind: NE 3 mph , 6 km/h
Temperature: 72°F , 22°C
Dew Point: 64°F , 18°C
Humidity: 78%
Barometer: 30.09 inHg , 1019 hPa
Clouds: Clear
Visibility: 10 miles , 16 km
2017/07/28 14:33 KSYN 281433Z AUTO 04003KT 10SM CLR 22/18 A3009 RMK AO2 T02200181
 
KMIC - Mlps/Crystal, MN, USA
Distance from station: NNW 26mi, 42km
Updated: Fri, 28-Jul-2017 8:53am CDT
Clear
Clear
 Wind from calm
Wind: Calm
Temperature: 72°F , 22°C
Dew Point: 59°F , 15°C
Humidity: 65%
Barometer: 30.09 inHg , 1019 hPa
Clouds: Clear
Visibility: 10 miles , 16 km
2017/07/28 13:53 KMIC 281353Z 00000KT 10SM CLR 22/15 A3009 RMK AO2 SLP186 T02170150
KFBL - Faribault Municipal, MN, USA
Distance from station: S 27mi, 43km
Updated: Fri, 28-Jul-2017 9:34am CDT
Clear
Clear
 Wind from N
Wind: N 3 mph , 6 km/h
Temperature: 72°F , 22°C
Dew Point: 64°F , 18°C
Humidity: 78%
Barometer: 30.10 inHg , 1019.3 hPa
Clouds: Clear
Visibility: 10 miles , 16 km
2017/07/28 14:34 KFBL 281434Z AUTO 35003KT 10SM CLR 22/18 A3010 RMK AO2
 
K21D - Lake Elmo, MN, USA
Distance from station: NE 27mi, 44km
Updated: Fri, 28-Jul-2017 9:32am CDT
Clear
Clear
 Wind from ENE
Wind: ENE 5 mph , 7 km/h
Temperature: 72°F , 22°C
Dew Point: 64°F , 18°C
Humidity: 78%
Barometer: 30.12 inHg , 1020 hPa
Clouds: Clear
Visibility: 10 miles , 16 km
2017/07/28 14:32 K21D 281432Z AUTO 07004KT 10SM CLR 22/18 A3012 RMK AO2
KANE - Anoka Co./Blaine, MN, USA
Distance from station: 0 30mi, 48km
Updated: Fri, 28-Jul-2017 8:45am CDT
Partly Cloudy
Partly Cloudy
 Wind from NE
Wind: NE 5 mph , 7 km/h
Temperature: 72°F , 22°C
Dew Point: 64°F , 18°C
Humidity: 78%
Barometer: 30.10 inHg , 1019.3 hPa
Clouds: Partly Cloudy
Visibility: 10 miles , 16 km
Cloud details: Partly Cloudy 25000 ft
2017/07/28 13:45 KANE 281345Z 05004KT 10SM SCT250 22/18 A3010
 
KRGK - Red Wing, MN, USA
Distance from station: ESE 37mi, 60km
Updated: Fri, 28-Jul-2017 9:35am CDT
Clear
Clear
 Wind from E
Wind: E 6 mph , 9 km/h
Temperature: 73°F , 23°C
Dew Point: 61°F , 16°C
Humidity: 65%
Barometer: 30.09 inHg , 1019 hPa
Clouds: Clear
Visibility: 10 miles , 16 km
2017/07/28 14:35 KRGK 281435Z AUTO 08005KT 10SM CLR 23/16 A3009 RMK AO2